sensor_id;sensor_type;location;lat;lon;timestamp;temperature;humidity
66568;DHT22;53422;49.296;6.900;2022-11-02T00:01:38;11.60;99.90
66568;DHT22;53422;49.296;6.900;2022-11-02T00:04:05;11.50;99.90
66568;DHT22;53422;49.296;6.900;2022-11-02T00:06:31;11.60;99.90
66568;DHT22;53422;49.296;6.900;2022-11-02T00:08:57;11.60;99.90
66568;DHT22;53422;49.296;6.900;2022-11-02T00:11:22;11.50;99.90
66568;DHT22;53422;49.296;6.900;2022-11-02T00:13:48;11.50;99.90
66568;DHT22;53422;49.296;6.900;2022-11-02T00:16:14;11.60;99.90
66568;DHT22;53422;49.296;6.900;2022-11-02T00:18:42;11.50;99.90
66568;DHT22;53422;49.296;6.900;2022-11-02T00:21:10;11.50;99.90
66568;DHT22;53422;49.296;6.900;2022-11-02T00:23:36;11.50;99.90
66568;DHT22;53422;49.296;6.900;2022-11-02T00:26:02;11.50;99.90
66568;DHT22;53422;49.296;6.900;2022-11-02T00:28:29;11.50;99.90
66568;DHT22;53422;49.296;6.900;2022-11-02T00:30:55;11.40;99.90
66568;DHT22;53422;49.296;6.900;2022-11-02T00:33:21;11.50;99.90
66568;DHT22;53422;49.296;6.900;2022-11-02T00:35:46;11.50;99.90
66568;DHT22;53422;49.296;6.900;2022-11-02T00:38:12;11.50;99.90
66568;DHT22;53422;49.296;6.900;2022-11-02T00:40:38;11.50;99.90
66568;DHT22;53422;49.296;6.900;2022-11-02T00:43:03;11.50;99.90
66568;DHT22;53422;49.296;6.900;2022-11-02T00:45:30;11.50;99.90
66568;DHT22;53422;49.296;6.900;2022-11-02T00:47:56;11.60;99.90
66568;DHT22;53422;49.296;6.900;2022-11-02T00:50:24;11.60;99.90
66568;DHT22;53422;49.296;6.900;2022-11-02T00:52:49;11.50;99.90
66568;DHT22;53422;49.296;6.900;2022-11-02T00:55:15;11.60;99.90
66568;DHT22;53422;49.296;6.900;2022-11-02T00:57:42;11.50;99.90
66568;DHT22;53422;49.296;6.900;2022-11-02T01:00:09;11.60;99.90
66568;DHT22;53422;49.296;6.900;2022-11-02T01:02:36;11.60;99.90
66568;DHT22;53422;49.296;6.900;2022-11-02T01:05:03;11.60;99.90
66568;DHT22;53422;49.296;6.900;2022-11-02T01:07:28;11.60;99.90
66568;DHT22;53422;49.296;6.900;2022-11-02T01:09:54;11.50;99.90
66568;DHT22;53422;49.296;6.900;2022-11-02T01:12:20;11.50;99.90
66568;DHT22;53422;49.296;6.900;2022-11-02T01:14:47;11.60;99.90
66568;DHT22;53422;49.296;6.900;2022-11-02T01:17:13;11.60;99.90
66568;DHT22;53422;49.296;6.900;2022-11-02T01:19:39;11.50;99.90
66568;DHT22;53422;49.296;6.900;2022-11-02T01:22:05;11.50;99.90
66568;DHT22;53422;49.296;6.900;2022-11-02T01:24:30;11.60;99.90
66568;DHT22;53422;49.296;6.900;2022-11-02T01:26:56;11.50;99.90
66568;DHT22;53422;49.296;6.900;2022-11-02T01:29:22;11.50;99.90
66568;DHT22;53422;49.296;6.900;2022-11-02T01:31:48;11.50;99.90
66568;DHT22;53422;49.296;6.900;2022-11-02T01:34:14;11.50;99.90
66568;DHT22;53422;49.296;6.900;2022-11-02T01:36:40;11.60;99.90
66568;DHT22;53422;49.296;6.900;2022-11-02T01:39:06;11.50;99.90
66568;DHT22;53422;49.296;6.900;2022-11-02T01:41:32;11.50;99.90
66568;DHT22;53422;49.296;6.900;2022-11-02T01:44:01;11.40;99.90
66568;DHT22;53422;49.296;6.900;2022-11-02T01:46:36;11.40;99.90
66568;DHT22;53422;49.296;6.900;2022-11-02T01:49:18;11.50;99.90
66568;DHT22;53422;49.296;6.900;2022-11-02T01:51:45;11.50;99.90
66568;DHT22;53422;49.296;6.900;2022-11-02T01:54:16;11.60;99.90
66568;DHT22;53422;49.296;6.900;2022-11-02T01:56:46;11.60;99.90
66568;DHT22;53422;49.296;6.900;2022-11-02T01:59:20;11.60;99.90
66568;DHT22;53422;49.296;6.900;2022-11-02T02:01:47;11.60;99.90
66568;DHT22;53422;49.296;6.900;2022-11-02T02:04:14;11.60;99.90
66568;DHT22;53422;49.296;6.900;2022-11-02T02:06:40;11.60;99.90
66568;DHT22;53422;49.296;6.900;2022-11-02T02:09:07;11.60;99.90
66568;DHT22;53422;49.296;6.900;2022-11-02T02:11:36;11.60;99.90
66568;DHT22;53422;49.296;6.900;2022-11-02T02:14:09;11.60;99.90
66568;DHT22;53422;49.296;6.900;2022-11-02T02:16:43;11.60;99.90
66568;DHT22;53422;49.296;6.900;2022-11-02T02:19:44;11.60;99.90
66568;DHT22;53422;49.296;6.900;2022-11-02T02:30:19;11.60;99.90
66568;DHT22;53422;49.296;6.900;2022-11-02T02:35:42;11.60;99.90
66568;DHT22;53422;49.296;6.900;2022-11-02T02:38:19;11.60;99.90
66568;DHT22;53422;49.296;6.900;2022-11-02T02:41:10;11.60;99.90
66568;DHT22;53422;49.296;6.900;2022-11-02T02:43:42;11.70;99.90
66568;DHT22;53422;49.296;6.900;2022-11-02T02:46:20;11.70;99.90
66568;DHT22;53422;49.296;6.900;2022-11-02T02:48:49;11.60;99.90
66568;DHT22;53422;49.296;6.900;2022-11-02T02:51:20;11.70;99.90
66568;DHT22;53422;49.296;6.900;2022-11-02T02:53:52;11.70;99.90
66568;DHT22;53422;49.296;6.900;2022-11-02T02:56:22;11.70;99.90
66568;DHT22;53422;49.296;6.900;2022-11-02T02:59:00;11.70;99.90
66568;DHT22;53422;49.296;6.900;2022-11-02T03:01:27;11.70;99.90
66568;DHT22;53422;49.296;6.900;2022-11-02T03:03:53;11.70;99.90
66568;DHT22;53422;49.296;6.900;2022-11-02T03:06:30;11.70;99.90
66568;DHT22;53422;49.296;6.900;2022-11-02T03:11:26;11.70;99.90
66568;DHT22;53422;49.296;6.900;2022-11-02T03:17:12;11.70;99.90
66568;DHT22;53422;49.296;6.900;2022-11-02T03:20:07;11.70;99.90
66568;DHT22;53422;49.296;6.900;2022-11-02T03:25:38;11.80;99.90
66568;DHT22;53422;49.296;6.900;2022-11-02T03:28:23;11.80;99.90
66568;DHT22;53422;49.296;6.900;2022-11-02T03:31:02;11.80;99.90
66568;DHT22;53422;49.296;6.900;2022-11-02T03:33:44;11.80;99.90
66568;DHT22;53422;49.296;6.900;2022-11-02T03:36:19;11.80;99.90
66568;DHT22;53422;49.296;6.900;2022-11-02T03:38:50;11.80;99.90
66568;DHT22;53422;49.296;6.900;2022-11-02T03:41:19;11.80;99.90
66568;DHT22;53422;49.296;6.900;2022-11-02T03:43:48;11.80;99.90
66568;DHT22;53422;49.296;6.900;2022-11-02T03:46:16;11.80;99.90
66568;DHT22;53422;49.296;6.900;2022-11-02T03:48:46;11.80;99.90
66568;DHT22;53422;49.296;6.900;2022-11-02T03:51:14;11.80;99.90
66568;DHT22;53422;49.296;6.900;2022-11-02T03:54:05;11.80;99.90
66568;DHT22;53422;49.296;6.900;2022-11-02T03:56:41;11.80;99.90
66568;DHT22;53422;49.296;6.900;2022-11-02T03:59:07;11.70;99.90
66568;DHT22;53422;49.296;6.900;2022-11-02T04:01:39;11.70;99.90
66568;DHT22;53422;49.296;6.900;2022-11-02T04:04:05;11.70;99.90
66568;DHT22;53422;49.296;6.900;2022-11-02T04:06:31;11.70;99.90
66568;DHT22;53422;49.296;6.900;2022-11-02T04:08:57;11.70;99.90
66568;DHT22;53422;49.296;6.900;2022-11-02T04:11:23;11.70;99.90
66568;DHT22;53422;49.296;6.900;2022-11-02T04:14:07;11.80;99.90
66568;DHT22;53422;49.296;6.900;2022-11-02T04:16:52;11.70;99.90
66568;DHT22;53422;49.296;6.900;2022-11-02T04:19:40;11.70;99.90
66568;DHT22;53422;49.296;6.900;2022-11-02T04:22:06;11.70;99.90
66568;DHT22;53422;49.296;6.900;2022-11-02T04:24:50;11.70;99.90
66568;DHT22;53422;49.296;6.900;2022-11-02T04:27:34;11.70;99.90
66568;DHT22;53422;49.296;6.900;2022-11-02T04:30:00;11.70;99.90
66568;DHT22;53422;49.296;6.900;2022-11-02T04:32:26;11.80;99.90
66568;DHT22;53422;49.296;6.900;2022-11-02T04:35:10;11.70;99.90
66568;DHT22;53422;49.296;6.900;2022-11-02T04:37:40;11.70;99.90
66568;DHT22;53422;49.296;6.900;2022-11-02T04:40:24;11.70;99.90
66568;DHT22;53422;49.296;6.900;2022-11-02T04:42:50;11.70;99.90
66568;DHT22;53422;49.296;6.900;2022-11-02T04:45:15;11.70;99.90
66568;DHT22;53422;49.296;6.900;2022-11-02T04:47:41;11.70;99.90
66568;DHT22;53422;49.296;6.900;2022-11-02T04:50:07;11.70;99.90
66568;DHT22;53422;49.296;6.900;2022-11-02T04:52:32;11.70;99.90
66568;DHT22;53422;49.296;6.900;2022-11-02T04:55:01;11.70;99.90
66568;DHT22;53422;49.296;6.900;2022-11-02T04:57:27;11.70;99.90
66568;DHT22;53422;49.296;6.900;2022-11-02T04:59:52;11.70;99.90
66568;DHT22;53422;49.296;6.900;2022-11-02T05:02:18;11.70;99.90
66568;DHT22;53422;49.296;6.900;2022-11-02T05:04:43;11.70;99.90
66568;DHT22;53422;49.296;6.900;2022-11-02T05:07:10;11.70;99.90
66568;DHT22;53422;49.296;6.900;2022-11-02T05:09:36;11.70;99.90
66568;DHT22;53422;49.296;6.900;2022-11-02T05:12:02;11.70;99.90
66568;DHT22;53422;49.296;6.900;2022-11-02T05:14:30;11.70;99.90
66568;DHT22;53422;49.296;6.900;2022-11-02T05:16:56;11.60;99.90
66568;DHT22;53422;49.296;6.900;2022-11-02T05:19:22;11.70;99.90
66568;DHT22;53422;49.296;6.900;2022-11-02T05:21:48;11.70;99.90
66568;DHT22;53422;49.296;6.900;2022-11-02T05:24:13;11.70;99.90
66568;DHT22;53422;49.296;6.900;2022-11-02T05:26:39;11.60;99.90
66568;DHT22;53422;49.296;6.900;2022-11-02T05:29:05;11.70;99.90
66568;DHT22;53422;49.296;6.900;2022-11-02T05:31:30;11.70;99.90
66568;DHT22;53422;49.296;6.900;2022-11-02T05:33:56;11.70;99.90
66568;DHT22;53422;49.296;6.900;2022-11-02T05:36:21;11.60;99.90
66568;DHT22;53422;49.296;6.900;2022-11-02T05:38:47;11.60;99.90
66568;DHT22;53422;49.296;6.900;2022-11-02T05:41:16;11.60;99.90
66568;DHT22;53422;49.296;6.900;2022-11-02T05:43:41;11.70;99.90
66568;DHT22;53422;49.296;6.900;2022-11-02T05:46:08;11.60;99.90
66568;DHT22;53422;49.296;6.900;2022-11-02T05:48:34;11.60;99.90
66568;DHT22;53422;49.296;6.900;2022-11-02T05:51:02;11.60;99.90
66568;DHT22;53422;49.296;6.900;2022-11-02T05:53:28;11.70;99.90
66568;DHT22;53422;49.296;6.900;2022-11-02T05:55:59;11.60;99.90
66568;DHT22;53422;49.296;6.900;2022-11-02T05:58:26;11.60;99.90
66568;DHT22;53422;49.296;6.900;2022-11-02T06:00:52;11.60;99.90
66568;DHT22;53422;49.296;6.900;2022-11-02T06:03:18;11.60;99.90
66568;DHT22;53422;49.296;6.900;2022-11-02T06:05:44;11.50;99.90
66568;DHT22;53422;49.296;6.900;2022-11-02T06:08:10;11.50;99.90
66568;DHT22;53422;49.296;6.900;2022-11-02T06:10:35;11.60;99.90
66568;DHT22;53422;49.296;6.900;2022-11-02T06:13:02;11.60;99.90
66568;DHT22;53422;49.296;6.900;2022-11-02T06:15:30;11.60;99.90
66568;DHT22;53422;49.296;6.900;2022-11-02T06:17:56;11.60;99.90
66568;DHT22;53422;49.296;6.900;2022-11-02T06:20:21;11.60;99.90
66568;DHT22;53422;49.296;6.900;2022-11-02T06:22:47;11.60;99.90
66568;DHT22;53422;49.296;6.900;2022-11-02T06:25:14;11.60;99.90
66568;DHT22;53422;49.296;6.900;2022-11-02T06:27:39;11.60;99.90
66568;DHT22;53422;49.296;6.900;2022-11-02T06:30:06;11.50;99.90
66568;DHT22;53422;49.296;6.900;2022-11-02T06:32:32;11.60;99.90
66568;DHT22;53422;49.296;6.900;2022-11-02T06:34:58;11.60;99.90
66568;DHT22;53422;49.296;6.900;2022-11-02T06:37:23;11.60;99.90
66568;DHT22;53422;49.296;6.900;2022-11-02T06:39:49;11.60;99.90
66568;DHT22;53422;49.296;6.900;2022-11-02T06:42:14;11.60;99.90
66568;DHT22;53422;49.296;6.900;2022-11-02T06:44:40;11.60;99.90
66568;DHT22;53422;49.296;6.900;2022-11-02T06:47:06;11.60;99.90
66568;DHT22;53422;49.296;6.900;2022-11-02T06:49:31;11.60;99.90
66568;DHT22;53422;49.296;6.900;2022-11-02T06:51:57;11.60;99.90
66568;DHT22;53422;49.296;6.900;2022-11-02T06:54:22;11.60;99.90
66568;DHT22;53422;49.296;6.900;2022-11-02T06:56:48;11.60;99.90
66568;DHT22;53422;49.296;6.900;2022-11-02T06:59:14;11.60;99.90
66568;DHT22;53422;49.296;6.900;2022-11-02T07:01:40;11.60;99.90
66568;DHT22;53422;49.296;6.900;2022-11-02T07:04:07;11.60;99.90
66568;DHT22;53422;49.296;6.900;2022-11-02T07:06:32;11.60;99.90
66568;DHT22;53422;49.296;6.900;2022-11-02T07:08:59;11.60;99.90
66568;DHT22;53422;49.296;6.900;2022-11-02T07:11:25;11.60;99.90
66568;DHT22;53422;49.296;6.900;2022-11-02T07:13:51;11.60;99.90
66568;DHT22;53422;49.296;6.900;2022-11-02T07:16:16;11.60;99.90
66568;DHT22;53422;49.296;6.900;2022-11-02T07:18:42;11.60;99.90
66568;DHT22;53422;49.296;6.900;2022-11-02T07:21:07;11.60;99.90
66568;DHT22;53422;49.296;6.900;2022-11-02T07:23:35;11.60;99.90
66568;DHT22;53422;49.296;6.900;2022-11-02T07:26:01;11.60;99.90
66568;DHT22;53422;49.296;6.900;2022-11-02T07:28:27;11.60;99.90
66568;DHT22;53422;49.296;6.900;2022-11-02T07:30:53;11.60;99.90
66568;DHT22;53422;49.296;6.900;2022-11-02T07:33:19;11.60;99.90
66568;DHT22;53422;49.296;6.900;2022-11-02T07:35:44;11.60;99.90
66568;DHT22;53422;49.296;6.900;2022-11-02T07:38:10;11.60;99.90
66568;DHT22;53422;49.296;6.900;2022-11-02T07:40:36;11.70;99.90
66568;DHT22;53422;49.296;6.900;2022-11-02T07:43:03;11.70;99.90
66568;DHT22;53422;49.296;6.900;2022-11-02T07:45:29;11.70;99.90
66568;DHT22;53422;49.296;6.900;2022-11-02T07:47:55;11.70;99.90
66568;DHT22;53422;49.296;6.900;2022-11-02T07:50:22;11.70;99.90
66568;DHT22;53422;49.296;6.900;2022-11-02T07:52:50;11.70;99.90
66568;DHT22;53422;49.296;6.900;2022-11-02T07:55:17;11.70;99.90
66568;DHT22;53422;49.296;6.900;2022-11-02T07:57:47;11.70;99.90
66568;DHT22;53422;49.296;6.900;2022-11-02T08:00:16;11.70;99.90
66568;DHT22;53422;49.296;6.900;2022-11-02T08:02:45;11.70;99.90
66568;DHT22;53422;49.296;6.900;2022-11-02T08:05:11;11.70;99.90
66568;DHT22;53422;49.296;6.900;2022-11-02T08:07:36;11.70;99.90
66568;DHT22;53422;49.296;6.900;2022-11-02T08:10:02;11.70;99.90
66568;DHT22;53422;49.296;6.900;2022-11-02T08:12:29;11.80;99.90
66568;DHT22;53422;49.296;6.900;2022-11-02T08:14:54;11.80;99.90
66568;DHT22;53422;49.296;6.900;2022-11-02T08:17:24;11.80;99.90
66568;DHT22;53422;49.296;6.900;2022-11-02T08:19:50;11.90;99.90
66568;DHT22;53422;49.296;6.900;2022-11-02T08:22:15;11.90;99.90
66568;DHT22;53422;49.296;6.900;2022-11-02T08:24:41;11.90;99.90
66568;DHT22;53422;49.296;6.900;2022-11-02T08:27:06;12.00;99.90
66568;DHT22;53422;49.296;6.900;2022-11-02T08:29:32;12.00;99.90
66568;DHT22;53422;49.296;6.900;2022-11-02T08:31:58;12.00;99.90
66568;DHT22;53422;49.296;6.900;2022-11-02T08:34:24;12.00;99.90
66568;DHT22;53422;49.296;6.900;2022-11-02T08:36:49;12.00;99.90
66568;DHT22;53422;49.296;6.900;2022-11-02T08:39:15;12.10;99.90
66568;DHT22;53422;49.296;6.900;2022-11-02T08:41:40;12.10;99.90
66568;DHT22;53422;49.296;6.900;2022-11-02T08:44:06;12.10;99.90
66568;DHT22;53422;49.296;6.900;2022-11-02T08:46:31;12.20;99.90
66568;DHT22;53422;49.296;6.900;2022-11-02T08:48:57;12.20;99.90
66568;DHT22;53422;49.296;6.900;2022-11-02T08:51:22;12.20;99.90
66568;DHT22;53422;49.296;6.900;2022-11-02T08:53:48;12.20;99.90
66568;DHT22;53422;49.296;6.900;2022-11-02T08:56:14;12.30;99.90
66568;DHT22;53422;49.296;6.900;2022-11-02T08:58:39;12.30;99.90
66568;DHT22;53422;49.296;6.900;2022-11-02T09:01:05;12.30;99.90
66568;DHT22;53422;49.296;6.900;2022-11-02T09:03:30;12.30;99.90
66568;DHT22;53422;49.296;6.900;2022-11-02T09:06:00;12.30;99.90
66568;DHT22;53422;49.296;6.900;2022-11-02T09:08:27;12.30;99.90
66568;DHT22;53422;49.296;6.900;2022-11-02T09:10:57;12.40;99.90
66568;DHT22;53422;49.296;6.900;2022-11-02T09:13:23;12.40;99.90
66568;DHT22;53422;49.296;6.900;2022-11-02T09:15:55;12.40;99.90
66568;DHT22;53422;49.296;6.900;2022-11-02T09:18:21;12.40;99.90
66568;DHT22;53422;49.296;6.900;2022-11-02T09:23:16;12.40;99.90
66568;DHT22;53422;49.296;6.900;2022-11-02T09:25:41;12.40;99.90
66568;DHT22;53422;49.296;6.900;2022-11-02T09:28:07;12.40;99.90
66568;DHT22;53422;49.296;6.900;2022-11-02T09:30:33;12.50;99.90
66568;DHT22;53422;49.296;6.900;2022-11-02T09:33:02;12.50;99.90
66568;DHT22;53422;49.296;6.900;2022-11-02T09:35:30;12.50;99.90
66568;DHT22;53422;49.296;6.900;2022-11-02T09:37:56;12.60;99.90
66568;DHT22;53422;49.296;6.900;2022-11-02T09:40:27;12.60;99.90
66568;DHT22;53422;49.296;6.900;2022-11-02T09:48:26;12.60;99.90
66568;DHT22;53422;49.296;6.900;2022-11-02T09:53:49;12.70;99.90
66568;DHT22;53422;49.296;6.900;2022-11-02T09:56:18;12.70;99.90
66568;DHT22;53422;49.296;6.900;2022-11-02T09:58:53;12.70;99.90
66568;DHT22;53422;49.296;6.900;2022-11-02T10:04:31;12.70;99.90
66568;DHT22;53422;49.296;6.900;2022-11-02T10:12:44;12.70;99.90
66568;DHT22;53422;49.296;6.900;2022-11-02T10:15:27;12.70;99.90
66568;DHT22;53422;49.296;6.900;2022-11-02T10:17:57;12.70;99.90
66568;DHT22;53422;49.296;6.900;2022-11-02T10:20:32;12.80;99.90
66568;DHT22;53422;49.296;6.900;2022-11-02T10:23:02;12.80;99.90
66568;DHT22;53422;49.296;6.900;2022-11-02T10:25:28;12.80;99.90
66568;DHT22;53422;49.296;6.900;2022-11-02T10:28:03;12.80;99.90
66568;DHT22;53422;49.296;6.900;2022-11-02T10:30:34;12.70;99.90
66568;DHT22;53422;49.296;6.900;2022-11-02T10:33:09;12.80;99.90
66568;DHT22;53422;49.296;6.900;2022-11-02T10:35:54;12.80;99.90
66568;DHT22;53422;49.296;6.900;2022-11-02T10:49:15;13.00;99.90
66568;DHT22;53422;49.296;6.900;2022-11-02T10:51:42;13.00;99.90
66568;DHT22;53422;49.296;6.900;2022-11-02T10:54:13;13.00;99.90
66568;DHT22;53422;49.296;6.900;2022-11-02T10:56:41;13.00;99.90
66568;DHT22;53422;49.296;6.900;2022-11-02T10:59:14;13.00;99.90
66568;DHT22;53422;49.296;6.900;2022-11-02T11:04:27;13.00;99.90
66568;DHT22;53422;49.296;6.900;2022-11-02T11:06:54;13.10;99.90
66568;DHT22;53422;49.296;6.900;2022-11-02T11:12:17;13.10;99.90
66568;DHT22;53422;49.296;6.900;2022-11-02T11:14:55;13.10;99.90
66568;DHT22;53422;49.296;6.900;2022-11-02T11:17:26;13.10;99.90
66568;DHT22;53422;49.296;6.900;2022-11-02T11:19:54;13.10;99.90
66568;DHT22;53422;49.296;6.900;2022-11-02T11:22:26;13.20;99.90
66568;DHT22;53422;49.296;6.900;2022-11-02T11:27:29;13.20;99.90
66568;DHT22;53422;49.296;6.900;2022-11-02T11:29:57;13.20;99.90
66568;DHT22;53422;49.296;6.900;2022-11-02T11:32:28;13.20;99.90
66568;DHT22;53422;49.296;6.900;2022-11-02T11:35:05;13.20;99.90
66568;DHT22;53422;49.296;6.900;2022-11-02T11:37:32;13.20;99.90
66568;DHT22;53422;49.296;6.900;2022-11-02T11:40:15;13.20;99.90
66568;DHT22;53422;49.296;6.900;2022-11-02T11:42:41;13.20;99.90
66568;DHT22;53422;49.296;6.900;2022-11-02T11:45:21;13.20;99.90
66568;DHT22;53422;49.296;6.900;2022-11-02T11:47:51;13.30;99.90
66568;DHT22;53422;49.296;6.900;2022-11-02T11:50:18;13.30;99.90
66568;DHT22;53422;49.296;6.900;2022-11-02T11:52:44;13.30;99.90
66568;DHT22;53422;49.296;6.900;2022-11-02T11:55:22;13.20;99.90
66568;DHT22;53422;49.296;6.900;2022-11-02T12:00:39;13.20;99.90
66568;DHT22;53422;49.296;6.900;2022-11-02T12:03:06;13.20;99.90
66568;DHT22;53422;49.296;6.900;2022-11-02T12:06:21;13.20;99.90
66568;DHT22;53422;49.296;6.900;2022-11-02T12:12:06;13.20;99.90
66568;DHT22;53422;49.296;6.900;2022-11-02T12:17:34;13.20;99.90
66568;DHT22;53422;49.296;6.900;2022-11-02T12:25:47;13.20;99.90
66568;DHT22;53422;49.296;6.900;2022-11-02T12:29:10;13.10;99.90
66568;DHT22;53422;49.296;6.900;2022-11-02T12:31:18;13.10;99.90
66568;DHT22;53422;49.296;6.900;2022-11-02T12:39:08;13.10;99.90
66568;DHT22;53422;49.296;6.900;2022-11-02T12:44:35;13.00;99.90
66568;DHT22;53422;49.296;6.900;2022-11-02T12:47:38;13.00;99.90
66568;DHT22;53422;49.296;6.900;2022-11-02T12:50:21;13.10;99.90
66568;DHT22;53422;49.296;6.900;2022-11-02T12:54:00;13.00;99.90
66568;DHT22;53422;49.296;6.900;2022-11-02T12:55:55;13.10;99.90
66568;DHT22;53422;49.296;6.900;2022-11-02T12:58:36;13.00;99.90
66568;DHT22;53422;49.296;6.900;2022-11-02T13:06:12;13.30;99.90
66568;DHT22;53422;49.296;6.900;2022-11-02T13:11:29;13.50;99.90
66568;DHT22;53422;49.296;6.900;2022-11-02T13:13:57;13.50;99.90
66568;DHT22;53422;49.296;6.900;2022-11-02T13:16:40;13.50;99.90
66568;DHT22;53422;49.296;6.900;2022-11-02T13:21:57;13.60;99.90
66568;DHT22;53422;49.296;6.900;2022-11-02T13:24:28;13.70;99.90
66568;DHT22;53422;49.296;6.900;2022-11-02T13:26:58;13.80;99.90
66568;DHT22;53422;49.296;6.900;2022-11-02T13:29:39;13.90;99.90
66568;DHT22;53422;49.296;6.900;2022-11-02T13:32:16;14.00;99.90
66568;DHT22;53422;49.296;6.900;2022-11-02T13:34:47;14.00;99.90
66568;DHT22;53422;49.296;6.900;2022-11-02T13:37:26;13.90;99.90
66568;DHT22;53422;49.296;6.900;2022-11-02T13:39:59;14.00;99.90
66568;DHT22;53422;49.296;6.900;2022-11-02T13:45:17;13.90;99.90
66568;DHT22;53422;49.296;6.900;2022-11-02T13:48:25;14.10;99.90
66568;DHT22;53422;49.296;6.900;2022-11-02T13:50:57;14.00;99.90
66568;DHT22;53422;49.296;6.900;2022-11-02T13:53:32;14.10;98.80
66568;DHT22;53422;49.296;6.900;2022-11-02T13:56:04;14.10;99.60
66568;DHT22;53422;49.296;6.900;2022-11-02T13:58:42;14.10;91.70
66568;DHT22;53422;49.296;6.900;2022-11-02T14:01:10;14.10;94.30
66568;DHT22;53422;49.296;6.900;2022-11-02T14:03:47;14.10;93.70
66568;DHT22;53422;49.296;6.900;2022-11-02T14:06:18;14.10;93.90
66568;DHT22;53422;49.296;6.900;2022-11-02T14:08:50;14.20;99.40
66568;DHT22;53422;49.296;6.900;2022-11-02T14:16:43;14.00;99.90
66568;DHT22;53422;49.296;6.900;2022-11-02T14:22:17;14.10;99.90
66568;DHT22;53422;49.296;6.900;2022-11-02T14:45:37;14.00;99.90
66568;DHT22;53422;49.296;6.900;2022-11-02T14:48:12;14.00;99.90
66568;DHT22;53422;49.296;6.900;2022-11-02T14:50:40;14.00;99.90
66568;DHT22;53422;49.296;6.900;2022-11-02T14:53:09;13.90;99.90
66568;DHT22;53422;49.296;6.900;2022-11-02T14:55:51;13.90;99.90
66568;DHT22;53422;49.296;6.900;2022-11-02T14:58:19;13.90;99.90
66568;DHT22;53422;49.296;6.900;2022-11-02T15:08:33;13.80;99.90
66568;DHT22;53422;49.296;6.900;2022-11-02T15:16:55;13.60;99.90
66568;DHT22;53422;49.296;6.900;2022-11-02T15:19:43;13.60;99.90
66568;DHT22;53422;49.296;6.900;2022-11-02T15:22:34;13.60;99.90
66568;DHT22;53422;49.296;6.900;2022-11-02T15:25:20;13.60;99.90
66568;DHT22;53422;49.296;6.900;2022-11-02T15:27:51;13.60;99.90
66568;DHT22;53422;49.296;6.900;2022-11-02T15:30:20;13.50;99.90
66568;DHT22;53422;49.296;6.900;2022-11-02T15:32:52;13.50;99.90
66568;DHT22;53422;49.296;6.900;2022-11-02T15:35:24;13.40;99.90
66568;DHT22;53422;49.296;6.900;2022-11-02T15:37:54;13.40;99.90
66568;DHT22;53422;49.296;6.900;2022-11-02T15:40:27;13.40;99.90
66568;DHT22;53422;49.296;6.900;2022-11-02T15:45:58;13.30;99.90
66568;DHT22;53422;49.296;6.900;2022-11-02T15:51:22;13.20;99.90
66568;DHT22;53422;49.296;6.900;2022-11-02T15:54:09;13.20;99.90
66568;DHT22;53422;49.296;6.900;2022-11-02T16:04:37;13.00;99.90
66568;DHT22;53422;49.296;6.900;2022-11-02T16:07:07;12.90;99.90
66568;DHT22;53422;49.296;6.900;2022-11-02T16:09:37;12.90;99.90
66568;DHT22;53422;49.296;6.900;2022-11-02T16:15:08;12.70;99.90
66568;DHT22;53422;49.296;6.900;2022-11-02T16:17:34;12.60;99.90
66568;DHT22;53422;49.296;6.900;2022-11-02T16:20:23;12.60;99.90
66568;DHT22;53422;49.296;6.900;2022-11-02T16:25:39;12.50;99.90
66568;DHT22;53422;49.296;6.900;2022-11-02T16:30:39;12.50;99.90
66568;DHT22;53422;49.296;6.900;2022-11-02T16:33:05;12.40;99.90
66568;DHT22;53422;49.296;6.900;2022-11-02T16:35:33;12.40;99.90
66568;DHT22;53422;49.296;6.900;2022-11-02T16:37:59;12.30;99.90
66568;DHT22;53422;49.296;6.900;2022-11-02T16:40:25;12.30;99.90
66568;DHT22;53422;49.296;6.900;2022-11-02T16:42:52;12.20;99.90
66568;DHT22;53422;49.296;6.900;2022-11-02T16:45:38;12.20;99.90
66568;DHT22;53422;49.296;6.900;2022-11-02T16:48:22;12.10;99.90
66568;DHT22;53422;49.296;6.900;2022-11-02T16:51:03;12.10;99.90
66568;DHT22;53422;49.296;6.900;2022-11-02T16:53:33;12.00;99.90
66568;DHT22;53422;49.296;6.900;2022-11-02T16:56:29;11.90;99.90
66568;DHT22;53422;49.296;6.900;2022-11-02T16:59:02;11.80;99.90
66568;DHT22;53422;49.296;6.900;2022-11-02T17:01:38;11.90;99.90
66568;DHT22;53422;49.296;6.900;2022-11-02T17:04:22;11.90;99.90
66568;DHT22;53422;49.296;6.900;2022-11-02T17:06:51;11.90;99.90
66568;DHT22;53422;49.296;6.900;2022-11-02T17:11:49;11.90;99.90
66568;DHT22;53422;49.296;6.900;2022-11-02T17:14:18;11.90;99.90
66568;DHT22;53422;49.296;6.900;2022-11-02T17:16:57;11.90;99.90
66568;DHT22;53422;49.296;6.900;2022-11-02T17:22:10;11.90;99.90
66568;DHT22;53422;49.296;6.900;2022-11-02T17:24:37;11.90;99.90
66568;DHT22;53422;49.296;6.900;2022-11-02T17:27:25;11.80;99.90
66568;DHT22;53422;49.296;6.900;2022-11-02T17:29:53;11.80;99.90
66568;DHT22;53422;49.296;6.900;2022-11-02T17:32:20;11.80;99.90
66568;DHT22;53422;49.296;6.900;2022-11-02T17:34:56;11.80;99.90
66568;DHT22;53422;49.296;6.900;2022-11-02T17:37:30;11.80;99.90
66568;DHT22;53422;49.296;6.900;2022-11-02T17:39:59;11.80;99.90
66568;DHT22;53422;49.296;6.900;2022-11-02T17:42:26;11.80;99.90
66568;DHT22;53422;49.296;6.900;2022-11-02T17:47:45;11.70;99.90
66568;DHT22;53422;49.296;6.900;2022-11-02T17:50:11;11.70;99.90
66568;DHT22;53422;49.296;6.900;2022-11-02T17:52:37;11.70;99.90
66568;DHT22;53422;49.296;6.900;2022-11-02T17:55:04;11.70;99.90
66568;DHT22;53422;49.296;6.900;2022-11-02T17:57:31;11.70;99.90
66568;DHT22;53422;49.296;6.900;2022-11-02T17:59:56;11.70;99.90
66568;DHT22;53422;49.296;6.900;2022-11-02T18:02:22;11.60;99.90
66568;DHT22;53422;49.296;6.900;2022-11-02T18:04:48;11.60;99.90
66568;DHT22;53422;49.296;6.900;2022-11-02T18:07:13;11.60;99.90
66568;DHT22;53422;49.296;6.900;2022-11-02T18:09:39;11.60;99.90
66568;DHT22;53422;49.296;6.900;2022-11-02T18:12:04;11.60;99.90
66568;DHT22;53422;49.296;6.900;2022-11-02T18:14:30;11.60;99.90
66568;DHT22;53422;49.296;6.900;2022-11-02T18:16:55;11.50;99.90
66568;DHT22;53422;49.296;6.900;2022-11-02T18:19:21;11.50;99.90
66568;DHT22;53422;49.296;6.900;2022-11-02T18:21:47;11.50;99.90
66568;DHT22;53422;49.296;6.900;2022-11-02T18:24:12;11.50;99.90
66568;DHT22;53422;49.296;6.900;2022-11-02T18:26:38;11.50;99.90
66568;DHT22;53422;49.296;6.900;2022-11-02T18:29:04;11.50;99.90
66568;DHT22;53422;49.296;6.900;2022-11-02T18:31:30;11.50;99.90
66568;DHT22;53422;49.296;6.900;2022-11-02T18:33:56;11.50;99.90
66568;DHT22;53422;49.296;6.900;2022-11-02T18:36:22;11.50;99.90